Time;durP1;ratioP1;P1;durP2;ratioP2;P2;SDS_P1;SDS_P2;PMS_P1;PMS_P2;Temp;Humidity;BMP_temperature;BMP_pressure;BME280_temperature;BME280_humidity;BME280_pressure;Samples;Min_cycle;Max_cycle;Signal;HPM_P1;HPM_P2
2023/09/02 00:00:16;;;;;;;;;;;;;;;12.88;82.31;101137.85;105651;1270;125031;-77
2023/09/02 00:03:03;;;;;;;;;;;;;;;12.86;82.35;101134.45;105780;1270;68906;-86
2023/09/02 00:05:29;;;;;;;;;;;;;;;12.85;82.36;101139.89;105860;1270;72051;-80
2023/09/02 00:07:56;;;;;;;;;;;;;;;12.84;82.48;101136.17;105804;1270;125184;-80
2023/09/02 00:10:22;;;;;;;;;;;;;;;12.82;82.46;101138.79;105909;1269;61308;-80
2023/09/02 00:12:49;;;;;;;;;;;;;;;12.82;82.55;101142.11;105997;1270;125237;-80
2023/09/02 00:15:16;;;;;;;;;;;;;;;12.80;82.60;101141.91;106154;1270;61307;-86
2023/09/02 00:17:43;;;;;;;;;;;;;;;12.78;82.66;101140.28;106076;1272;71640;-85
2023/09/02 00:20:10;;;;;;;;;;;;;;;12.77;82.66;101137.08;105564;1274;125597;-85
2023/09/02 00:22:36;;;;;;;;;;;;;;;12.76;82.66;101140.93;105800;1271;61372;-87
2023/09/02 00:25:03;;;;;;;;;;;;;;;12.74;82.64;101137.19;105267;1270;125321;-85
2023/09/02 00:27:29;;;;;;;;;;;;;;;12.72;82.76;101139.25;105915;1269;64910;-86
2023/09/02 00:29:56;;;;;;;;;;;;;;;12.71;82.77;101141.88;105714;1267;125145;-86
2023/09/02 00:32:23;;;;;;;;;;;;;;;12.69;82.82;101143.75;105932;1270;61100;-79
2023/09/02 00:34:50;;;;;;;;;;;;;;;12.66;82.87;101146.35;105901;1271;61211;-83
2023/09/02 00:37:16;;;;;;;;;;;;;;;12.63;82.85;101145.93;105671;1270;125026;-87
2023/09/02 00:39:43;;;;;;;;;;;;;;;12.61;82.96;101144.83;105735;1275;61452;-79
2023/09/02 00:42:10;;;;;;;;;;;;;;;12.59;82.98;101145.16;105788;1270;125495;-80
2023/09/02 00:44:36;;;;;;;;;;;;;;;12.58;83.05;101142.10;105878;1271;61390;-79
2023/09/02 00:47:03;;;;;;;;;;;;;;;12.56;83.10;101141.19;105848;1268;61164;-79
2023/09/02 00:49:31;;;;;;;;;;;;;;;12.56;83.21;101141.20;105907;1270;125006;-80
2023/09/02 00:51:57;;;;;;;;;;;;;;;12.55;83.17;101139.41;105900;1270;64877;-84
2023/09/02 00:54:24;;;;;;;;;;;;;;;12.54;83.22;101141.15;105676;1271;125165;-85
2023/09/02 00:56:50;;;;;;;;;;;;;;;12.52;83.24;101143.02;105797;1270;61280;-85
2023/09/02 00:59:17;;;;;;;;;;;;;;;12.51;83.34;101147.58;105870;1270;61438;-84
2023/09/02 01:01:43;;;;;;;;;;;;;;;12.49;83.32;101149.65;105811;1269;125611;-79
2023/09/02 01:04:10;;;;;;;;;;;;;;;12.47;83.37;101148.73;105796;1270;66119;-79
2023/09/02 01:06:37;;;;;;;;;;;;;;;12.45;83.32;101151.31;105828;1272;125273;-81
2023/09/02 01:09:04;;;;;;;;;;;;;;;12.43;83.47;101151.64;105779;1270;61327;-81
2023/09/02 01:11:32;;;;;;;;;;;;;;;12.41;83.53;101152.45;105768;1271;61291;-85
2023/09/02 01:14:00;;;;;;;;;;;;;;;12.40;83.58;101147.88;105705;1270;125483;-85
2023/09/02 01:16:26;;;;;;;;;;;;;;;12.40;83.77;101151.36;105909;1270;64494;-79
2023/09/02 01:18:53;;;;;;;;;;;;;;;12.39;83.76;101149.59;105807;1270;124818;-79
2023/09/02 01:21:32;;;;;;;;;;;;;;;12.39;83.87;101148.17;105558;1268;61307;-84
2023/09/02 01:24:14;;;;;;;;;;;;;;;12.39;83.95;101147.66;105661;1270;125209;-84
2023/09/02 01:26:43;;;;;;;;;;;;;;;12.38;84.04;101146.39;105789;1268;73502;-83
2023/09/02 01:29:10;;;;;;;;;;;;;;;12.38;84.19;101144.64;105724;1270;64988;-78
2023/09/02 01:31:37;;;;;;;;;;;;;;;12.39;84.18;101147.83;105913;1270;124817;-83
2023/09/02 01:34:03;;;;;;;;;;;;;;;12.38;84.27;101148.34;105911;1271;61269;-84
2023/09/02 01:36:30;;;;;;;;;;;;;;;12.37;84.31;101150.09;105527;1270;126420;-83
2023/09/02 01:38:56;;;;;;;;;;;;;;;12.37;84.32;101150.92;105826;1272;61140;-84
2023/09/02 01:41:23;;;;;;;;;;;;;;;12.35;84.38;101150.20;105818;1270;61438;-83
2023/09/02 01:43:49;;;;;;;;;;;;;;;12.35;84.42;101152.48;105695;1270;124809;-83
2023/09/02 01:46:16;;;;;;;;;;;;;;;12.32;84.47;101153.46;105826;1269;61267;-85
2023/09/02 01:48:43;;;;;;;;;;;;;;;12.32;84.37;101153.63;105480;1270;125713;-86
2023/09/02 01:51:09;;;;;;;;;;;;;;;12.31;84.39;101152.38;105546;1270;61343;-85
2023/09/02 01:53:36;;;;;;;;;;;;;;;12.31;84.60;101152.55;105726;1270;65174;-86
2023/09/02 01:56:03;;;;;;;;;;;;;;;12.30;84.61;101152.71;105572;1273;124716;-82
2023/09/02 01:58:29;;;;;;;;;;;;;;;12.30;84.63;101158.33;105834;1270;60425;-83
2023/09/02 02:00:56;;;;;;;;;;;;;;;12.30;84.68;101158.68;105674;1272;126483;-84
2023/09/02 02:03:29;;;;;;;;;;;;;;;12.28;84.71;101165.88;105758;1268;74706;-84
2023/09/02 02:05:56;;;;;;;;;;;;;;;12.27;84.59;101165.31;105815;1267;125265;-84
2023/09/02 02:08:26;;;;;;;;;;;;;;;12.27;84.78;101170.60;105813;1268;72451;-80
2023/09/02 02:10:52;;;;;;;;;;;;;;;12.26;84.77;101171.27;105814;1268;61429;-80
2023/09/02 02:13:19;;;;;;;;;;;;;;;12.26;84.70;101171.79;105680;1270;124978;-82
2023/09/02 02:15:45;;;;;;;;;;;;;;;12.26;84.89;101172.33;105791;1269;73787;-85
2023/09/02 02:18:12;;;;;;;;;;;;;;;12.27;84.92;101177.98;105690;1268;125223;-85
2023/09/02 02:20:41;;;;;;;;;;;;;;;12.26;84.95;101177.77;105801;1270;61753;-85
2023/09/02 02:23:07;;;;;;;;;;;;;;;12.26;84.99;101184.30;105704;1271;61401;-85
2023/09/02 02:25:34;;;;;;;;;;;;;;;12.26;85.08;101184.98;105736;1273;125205;-85
2023/09/02 02:28:04;;;;;;;;;;;;;;;12.24;85.00;101178.77;105866;1270;61781;-84
2023/09/02 02:30:31;;;;;;;;;;;;;;;12.22;85.02;101177.15;105739;1273;125564;-84
2023/09/02 02:32:59;;;;;;;;;;;;;;;12.21;85.06;101179.41;105734;1270;71855;-84
2023/09/02 02:35:29;;;;;;;;;;;;;;;12.19;85.12;101174.80;105968;1270;61338;-83
2023/09/02 02:37:58;;;;;;;;;;;;;;;12.17;85.07;101170.00;105802;1270;125921;-86
2023/09/02 02:40:25;;;;;;;;;;;;;;;12.16;85.10;101173.31;105792;1271;73178;-86
2023/09/02 02:42:51;;;;;;;;;;;;;;;12.15;85.15;101177.70;105635;1269;125660;-85
2023/09/02 02:45:18;;;;;;;;;;;;;;;12.15;85.26;101175.56;105742;1270;71521;-86
2023/09/02 02:47:45;;;;;;;;;;;;;;;12.14;85.25;101176.07;105806;1270;61272;-85
2023/09/02 02:50:11;;;;;;;;;;;;;;;12.13;85.31;101178.86;105686;1271;124841;-86
2023/09/02 02:52:38;;;;;;;;;;;;;;;12.11;85.27;101177.06;105905;1273;61375;-84
2023/09/02 02:55:05;;;;;;;;;;;;;;;12.10;85.26;101178.08;105781;1270;125767;-84
2023/09/02 02:57:31;;;;;;;;;;;;;;;12.09;85.34;101178.04;105735;1269;72780;-83
2023/09/02 02:59:58;;;;;;;;;;;;;;;12.09;85.46;101181.55;105655;1269;124966;-86
2023/09/02 03:02:24;;;;;;;;;;;;;;;12.09;85.59;101180.49;105635;1273;61299;-83
2023/09/02 03:04:51;;;;;;;;;;;;;;;12.09;85.51;101183.84;105738;1271;61320;-84
2023/09/02 03:07:18;;;;;;;;;;;;;;;12.07;85.49;101182.40;105717;1272;126684;-84
2023/09/02 03:09:44;;;;;;;;;;;;;;;12.06;85.55;101184.33;105709;1269;73120;-79
2023/09/02 03:12:11;;;;;;;;;;;;;;;12.05;85.50;101184.83;105590;1270;126089;-79
2023/09/02 03:14:37;;;;;;;;;;;;;;;12.04;85.52;101182.67;105764;1273;61347;-85
2023/09/02 03:17:04;;;;;;;;;;;;;;;12.01;85.43;101184.19;105795;1273;61303;-85
2023/09/02 03:19:30;;;;;;;;;;;;;;;11.99;85.49;101184.83;105659;1270;125011;-85
2023/09/02 03:21:57;;;;;;;;;;;;;;;11.97;85.48;101189.52;105853;1271;62051;-85
2023/09/02 03:24:25;;;;;;;;;;;;;;;11.95;85.52;101188.59;105630;1273;125340;-85
2023/09/02 03:26:51;;;;;;;;;;;;;;;11.93;85.58;101186.95;105780;1272;61215;-79
2023/09/02 03:29:18;;;;;;;;;;;;;;;11.92;85.49;101190.44;105756;1271;61179;-79
2023/09/02 03:31:44;;;;;;;;;;;;;;;11.90;85.58;101187.40;105672;1270;124808;-83
2023/09/02 03:34:11;;;;;;;;;;;;;;;11.90;85.70;101187.41;105522;1270;61437;-84
2023/09/02 03:36:37;;;;;;;;;;;;;;;11.89;85.66;101192.28;105543;1271;125656;-84
2023/09/02 03:39:04;;;;;;;;;;;;;;;11.88;85.72;101186.98;105771;1273;61403;-85
2023/09/02 03:41:31;;;;;;;;;;;;;;;11.87;85.76;101186.77;105588;1270;74730;-83
2023/09/02 03:43:57;;;;;;;;;;;;;;;11.87;85.90;101184.65;105660;1273;124823;-83
2023/09/02 03:46:25;;;;;;;;;;;;;;;11.88;85.91;101185.57;105880;1270;71077;-85
2023/09/02 03:48:52;;;;;;;;;;;;;;;11.88;85.98;101187.17;105649;1275;124811;-85
2023/09/02 03:51:19;;;;;;;;;;;;;;;11.89;86.00;101187.02;105678;1269;61375;-85
2023/09/02 03:53:45;;;;;;;;;;;;;;;11.91;86.17;101188.14;105785;1269;61227;-85
2023/09/02 03:56:12;;;;;;;;;;;;;;;11.93;86.21;101188.02;105702;1273;65162;-83
2023/09/02 03:58:39;;;;;;;;;;;;;;;11.95;86.23;101189.13;105698;1271;73320;-84
2023/09/02 04:01:06;;;;;;;;;;;;;;;11.97;86.42;101189.71;105619;1270;124836;-84
2023/09/02 04:03:35;;;;;;;;;;;;;;;12.01;86.48;101190.70;105947;1270;61368;-84
2023/09/02 04:06:02;;;;;;;;;;;;;;;12.20;87.46;101195.02;105774;1271;125309;-83
2023/09/02 04:08:33;;;;;;;;;;;;;;;12.53;88.06;101186.70;105888;1272;66282;-84
2023/09/02 04:11:01;;;;;;;;;;;;;;;12.94;88.26;101188.01;105800;1272;72696;-84
2023/09/02 04:13:28;;;;;;;;;;;;;;;13.31;87.90;101192.88;105807;1270;124831;-83
2023/09/02 04:15:55;;;;;;;;;;;;;;;13.38;86.41;101196.02;105881;1270;61368;-83
2023/09/02 04:18:22;;;;;;;;;;;;;;;13.30;85.65;101200.77;105567;1268;124978;-86
2023/09/02 04:20:49;;;;;;;;;;;;;;;13.22;85.42;101200.59;105626;1270;65127;-85
2023/09/02 04:23:16;;;;;;;;;;;;;;;13.16;85.32;101204.36;105726;1275;71785;-79
2023/09/02 04:25:46;;;;;;;;;;;;;;;13.15;85.42;101209.08;105776;1270;125116;-79
2023/09/02 04:28:16;;;;;;;;;;;;;;;13.21;85.81;101213.98;105835;1271;61338;-84
2023/09/02 04:30:42;;;;;;;;;;;;;;;13.59;87.06;101217.59;105677;1270;124896;-86
2023/09/02 04:33:09;;;;;;;;;;;;;;;14.50;88.85;101221.39;105650;1273;66106;-84
2023/09/02 04:35:36;;;;;;;;;;;;;;;15.53;88.52;101220.93;105754;1274;73669;-80
2023/09/02 04:38:03;;;;;;;;;;;;;;;16.47;87.42;101220.49;105933;1268;124855;-81
2023/09/02 04:40:30;;;;;;;;;;;;;;;17.38;86.38;101220.41;105904;1270;61123;-82
2023/09/02 04:42:57;;;;;;;;;;;;;;;18.28;85.06;101218.38;105638;1272;125529;-88
2023/09/02 04:45:23;;;;;;;;;;;;;;;19.12;83.69;101224.55;105567;1270;66126;-83
2023/09/02 04:47:50;;;;;;;;;;;;;;;19.95;82.21;101228.83;105658;1269;125028;-82
2023/09/02 04:50:16;;;;;;;;;;;;;;;20.63;80.57;101228.17;105782;1269;61319;-93
2023/09/02 04:52:44;;;;;;;;;;;;;;;21.31;79.26;101231.25;105482;1271;61307;-88
2023/09/02 04:55:11;;;;;;;;;;;;;;;22.00;78.02;101231.44;105586;1274;124884;-91
2023/09/02 04:57:37;;;;;;;;;;;;;;;22.66;76.83;101235.06;105747;1271;64018;-90
2023/09/02 05:00:04;;;;;;;;;;;;;;;23.27;75.56;101232.71;105470;1276;124998;-90
2023/09/02 05:02:31;;;;;;;;;;;;;;;23.81;74.19;101233.02;105627;1271;61401;-89
2023/09/02 05:04:57;;;;;;;;;;;;;;;24.29;72.88;101237.30;105600;1275;61208;-89
2023/09/02 05:07:24;;;;;;;;;;;;;;;24.51;71.38;101234.45;105721;1268;124915;-88
2023/09/02 05:09:51;;;;;;;;;;;;;;;24.18;69.52;101240.80;105819;1271;65214;-79
2023/09/02 05:12:17;;;;;;;;;;;;;;;23.54;67.89;101239.66;105609;1270;125052;-81
2023/09/02 05:14:44;;;;;;;;;;;;;;;22.81;67.64;101240.90;105848;1270;59655;-91
2023/09/02 05:17:10;;;;;;;;;;;;;;;22.15;67.55;101241.77;105720;1271;61353;-92
2023/09/02 05:19:37;;;;;;;;;;;;;;;21.60;68.03;101243.77;105294;1273;125098;-90
2023/09/02 05:22:03;;;;;;;;;;;;;;;21.14;68.19;101247.14;105414;1271;66649;-90
2023/09/02 05:24:30;;;;;;;;;;;;;;;20.70;68.51;101257.90;105558;1271;127254;-84
2023/09/02 05:26:57;;;;;;;;;;;;;;;20.36;68.94;101263.85;105807;1271;61516;-83
2023/09/02 05:29:23;;;;;;;;;;;;;;;20.08;69.34;101262.80;106033;1271;61307;-91
2023/09/02 05:31:50;;;;;;;;;;;;;;;19.83;69.70;101268.45;105656;1270;125017;-87
2023/09/02 05:34:16;;;;;;;;;;;;;;;19.64;70.02;101269.04;105732;1270;59985;-91
2023/09/02 05:36:43;;;;;;;;;;;;;;;19.47;70.34;101267.86;105393;1274;123583;-89
2023/09/02 05:39:10;;;;;;;;;;;;;;;19.32;70.51;101265.95;105677;1270;59678;-89
2023/09/02 05:41:38;;;;;;;;;;;;;;;19.20;70.97;101268.84;105772;1270;61326;-85
2023/09/02 05:44:05;;;;;;;;;;;;;;;19.11;71.27;101273.11;105806;1269;123996;-84
2023/09/02 05:46:31;;;;;;;;;;;;;;;19.02;71.33;101272.24;105841;1268;66297;-86
2023/09/02 05:48:58;;;;;;;;;;;;;;;18.90;71.49;101274.92;105794;1271;124822;-87
2023/09/02 05:51:25;;;;;;;;;;;;;;;18.80;71.70;101282.02;105892;1268;61360;-87
2023/09/02 05:53:51;;;;;;;;;;;;;;;18.70;71.98;101282.20;105750;1271;125010;-85
2023/09/02 05:56:18;;;;;;;;;;;;;;;18.61;72.21;101283.26;105795;1271;61153;-88
2023/09/02 05:58:44;;;;;;;;;;;;;;;18.51;72.45;101282.00;105723;1273;65443;-82
2023/09/02 06:01:12;;;;;;;;;;;;;;;18.42;72.67;101282.52;105807;1269;124390;-82
2023/09/02 06:03:42;;;;;;;;;;;;;;;18.33;72.80;101280.75;105802;1273;61405;-82
2023/09/02 06:06:11;;;;;;;;;;;;;;;18.21;72.97;101282.67;105732;1270;125486;-82
2023/09/02 06:08:38;;;;;;;;;;;;;;;18.11;73.19;101276.26;105758;1271;74499;-82
2023/09/02 06:11:05;;;;;;;;;;;;;;;18.04;73.40;101276.25;105846;1270;65104;-85
2023/09/02 06:13:34;;;;;;;;;;;;;;;18.01;73.76;101276.76;105574;1273;124996;-81
2023/09/02 06:16:01;;;;;;;;;;;;;;;17.99;73.98;101276.75;105773;1271;61400;-81
2023/09/02 06:18:35;;;;;;;;;;;;;;;18.01;74.20;101277.11;105684;1270;125019;-80
2023/09/02 06:21:09;;;;;;;;;;;;;;;18.00;74.16;101280.49;105926;1271;73414;-78
2023/09/02 06:23:42;;;;;;;;;;;;;;;17.96;74.23;101279.78;105772;1270;65191;-80
2023/09/02 06:26:09;;;;;;;;;;;;;;;17.94;74.33;101283.14;105886;1270;124749;-81
2023/09/02 06:28:35;;;;;;;;;;;;;;;17.91;74.47;101285.09;105807;1269;61364;-87
2023/09/02 06:31:08;;;;;;;;;;;;;;;17.89;74.51;101283.65;105673;1271;124767;-83
2023/09/02 06:33:37;;;;;;;;;;;;;;;17.87;74.66;101287.38;105768;1269;74532;-85
2023/09/02 06:36:10;;;;;;;;;;;;;;;17.86;74.73;101285.95;105651;1270;125093;-84
2023/09/02 06:38:36;;;;;;;;;;;;;;;17.86;74.83;101289.33;105886;1270;72792;-86
2023/09/02 06:41:13;;;;;;;;;;;;;;;17.86;75.00;101290.40;105953;1270;59598;-83
2023/09/02 06:43:40;;;;;;;;;;;;;;;17.88;74.99;101290.40;105755;1271;125253;-81
2023/09/02 06:46:10;;;;;;;;;;;;;;;17.86;75.01;101290.04;105841;1270;75590;-78
2023/09/02 06:48:37;;;;;;;;;;;;;;;17.86;75.06;101288.27;105591;1274;124843;-80
2023/09/02 06:51:03;;;;;;;;;;;;;;;17.87;75.05;101291.81;105851;1271;72747;-82
2023/09/02 06:53:30;;;;;;;;;;;;;;;17.89;75.28;101295.02;105921;1268;61897;-85
2023/09/02 06:55:56;;;;;;;;;;;;;;;17.93;75.34;101295.92;105628;1270;124789;-83
2023/09/02 06:58:23;;;;;;;;;;;;;;;17.97;75.33;101296.12;105711;1276;61224;-82
2023/09/02 07:00:49;;;;;;;;;;;;;;;17.98;75.25;101293.98;105665;1270;124895;-83
2023/09/02 07:03:16;;;;;;;;;;;;;;;17.97;75.16;101288.30;105801;1273;61374;-86
2023/09/02 07:05:42;;;;;;;;;;;;;;;17.98;75.29;101291.14;105871;1271;61408;-86
2023/09/02 07:08:09;;;;;;;;;;;;;;;18.00;75.33;101295.58;105564;1270;124232;-83
2023/09/02 07:10:36;;;;;;;;;;;;;;;18.03;75.34;101294.71;105806;1271;59224;-81
2023/09/02 07:13:02;;;;;;;;;;;;;;;18.07;75.38;101301.48;105704;1271;124364;-83
2023/09/02 07:15:29;;;;;;;;;;;;;;;18.07;75.29;101301.12;105821;1273;61583;-80
2023/09/02 07:17:55;;;;;;;;;;;;;;;18.09;75.33;101310.71;105508;1275;124462;-80
2023/09/02 07:20:22;;;;;;;;;;;;;;;18.12;75.39;101308.77;105765;1271;61253;-80
2023/09/02 07:22:48;;;;;;;;;;;;;;;18.16;75.44;101314.45;105754;1270;61275;-80
2023/09/02 07:25:14;;;;;;;;;;;;;;;18.20;75.41;101320.52;105644;1270;124616;-80
2023/09/02 07:27:41;;;;;;;;;;;;;;;18.22;75.26;101325.30;105783;1271;61224;-80
2023/09/02 07:30:08;;;;;;;;;;;;;;;18.24;75.24;101328.16;105656;1272;125156;-80
2023/09/02 07:32:34;;;;;;;;;;;;;;;18.26;75.15;101329.23;105824;1271;61295;-80
2023/09/02 07:35:01;;;;;;;;;;;;;;;18.28;75.23;101332.27;105687;1274;61314;-81
2023/09/02 07:37:27;;;;;;;;;;;;;;;18.32;75.25;101331.73;105710;1273;125312;-81
2023/09/02 07:39:54;;;;;;;;;;;;;;;18.38;75.27;101338.14;105791;1271;61278;-88
2023/09/02 07:42:21;;;;;;;;;;;;;;;18.42;75.12;101340.11;105521;1271;125110;-88
2023/09/02 07:44:47;;;;;;;;;;;;;;;18.48;75.16;101342.26;105432;1270;262420;-86
2023/09/02 07:47:14;;;;;;;;;;;;;;;18.55;75.09;101347.58;105727;1271;61304;-87
2023/09/02 07:49:43;;;;;;;;;;;;;;;18.57;74.69;101350.79;105822;1273;125130;-88
2023/09/02 07:52:09;;;;;;;;;;;;;;;18.58;74.61;101348.31;105780;1276;61202;-89
2023/09/02 07:54:36;;;;;;;;;;;;;;;18.65;74.73;101356.67;105897;1273;125028;-87
2023/09/02 07:57:03;;;;;;;;;;;;;;;18.71;74.64;101359.88;105800;1273;61393;-86
2023/09/02 07:59:33;;;;;;;;;;;;;;;18.79;74.56;101367.20;105637;1274;74766;-87
2023/09/02 08:02:00;;;;;;;;;;;;;;;18.86;74.41;101370.07;105751;1272;125566;-90
2023/09/02 08:04:27;;;;;;;;;;;;;;;18.93;74.24;101371.67;105675;1271;73991;-86
2023/09/02 08:06:53;;;;;;;;;;;;;;;19.01;74.20;101378.42;105650;1270;124821;-86
2023/09/02 08:09:21;;;;;;;;;;;;;;;19.08;73.89;101376.30;105764;1273;61279;-86
2023/09/02 08:11:47;;;;;;;;;;;;;;;19.12;73.54;101381.81;105750;1269;72405;-85
2023/09/02 08:14:14;;;;;;;;;;;;;;;19.15;73.75;101384.12;105665;1271;124496;-85
2023/09/02 08:16:44;;;;;;;;;;;;;;;19.20;73.47;101385.37;105650;1270;72477;-88
2023/09/02 08:19:16;;;;;;;;;;;;;;;19.23;73.16;101387.85;105711;1269;124953;-88
2023/09/02 08:21:43;;;;;;;;;;;;;;;19.27;73.07;101388.92;105867;1273;59324;-86
2023/09/02 08:24:09;;;;;;;;;;;;;;;19.29;73.00;101388.55;105639;1275;124665;-83
2023/09/02 08:26:36;;;;;;;;;;;;;;;19.33;72.85;101394.43;105860;1271;61281;-83
2023/09/02 08:29:02;;;;;;;;;;;;;;;19.34;72.59;101398.17;105830;1271;61204;-82
2023/09/02 08:31:29;;;;;;;;;;;;;;;19.34;72.54;101401.55;105691;1272;125213;-82
2023/09/02 08:33:56;;;;;;;;;;;;;;;19.38;72.57;101407.79;105663;1273;61183;-81
2023/09/02 08:36:22;;;;;;;;;;;;;;;19.41;72.36;101406.35;105508;1271;125487;-81
2023/09/02 08:38:51;;;;;;;;;;;;;;;19.46;72.42;101405.98;105801;1271;65388;-81
2023/09/02 08:41:29;;;;;;;;;;;;;;;19.53;72.17;101414.70;105785;1268;72486;-81
2023/09/02 08:43:58;;;;;;;;;;;;;;;19.60;72.09;101416.48;105689;1273;124967;-78
2023/09/02 08:46:25;;;;;;;;;;;;;;;19.68;72.04;101418.23;105797;1271;59310;-78
2023/09/02 08:48:53;;;;;;;;;;;;;;;19.75;71.77;101418.44;105662;1271;126576;-78
2023/09/02 08:51:20;;;;;;;;;;;;;;;19.79;71.50;101420.73;105767;1270;66080;-81
2023/09/02 08:53:47;;;;;;;;;;;;;;;19.85;71.13;101425.35;105545;1274;72828;-80
2023/09/02 08:56:13;;;;;;;;;;;;;;;19.88;70.82;101428.91;105840;1271;124812;-80
2023/09/02 08:58:40;;;;;;;;;;;;;;;19.91;70.59;101431.75;106141;1273;61144;-79
2023/09/02 09:01:07;;;;;;;;;;;;;;;19.96;70.30;101438.15;105998;1269;124692;-77
2023/09/02 09:03:33;;;;;;;;;;;;;;;19.99;69.92;101441.89;105878;1275;66304;-79
2023/09/02 09:06:09;;;;;;;;;;;;;;;20.04;69.85;101441.51;105624;1276;124254;-79
2023/09/02 09:08:35;;;;;;;;;;;;;;;20.12;69.72;101448.79;105907;1271;61181;-79
2023/09/02 09:11:08;;;;;;;;;;;;;;;20.17;69.17;101450.75;105821;1273;61516;-80
2023/09/02 09:13:44;;;;;;;;;;;;;;;20.14;68.62;101448.23;105545;1270;124617;-81
2023/09/02 09:16:19;;;;;;;;;;;;;;;20.19;68.46;101453.40;105607;1269;65159;-82
2023/09/02 09:18:46;;;;;;;;;;;;;;;20.21;68.22;101453.75;105737;1271;124338;-80
2023/09/02 09:21:14;;;;;;;;;;;;;;;20.23;67.89;101453.38;105191;1271;61442;-81
2023/09/02 09:23:41;;;;;;;;;;;;;;;20.25;67.57;101452.48;105060;1276;61313;-80
2023/09/02 09:26:08;;;;;;;;;;;;;;;20.25;67.43;101456.58;104880;1270;124144;-81
2023/09/02 09:28:53;;;;;;;;;;;;;;;20.29;67.34;101456.21;104929;1276;65672;-82
2023/09/02 09:31:20;;;;;;;;;;;;;;;20.33;66.87;101461.89;105747;1270;124261;-81
2023/09/02 09:33:58;;;;;;;;;;;;;;;20.31;66.29;101464.04;105804;1273;61317;-81
2023/09/02 09:36:25;;;;;;;;;;;;;;;20.32;66.16;101465.66;105596;1271;125313;-82
2023/09/02 09:38:53;;;;;;;;;;;;;;;20.36;66.24;101464.92;105784;1276;74632;-81
2023/09/02 09:41:19;;;;;;;;;;;;;;;20.41;66.14;101458.12;105857;1270;66313;-81
2023/09/02 09:44:05;;;;;;;;;;;;;;;20.46;66.12;101460.06;105639;1276;124198;-82
2023/09/02 09:46:35;;;;;;;;;;;;;;;20.48;65.63;101462.20;105685;1271;59296;-82
2023/09/02 09:49:02;;;;;;;;;;;;;;;20.50;65.16;101469.14;105750;1282;124271;-82
2023/09/02 09:51:29;;;;;;;;;;;;;;;20.53;65.14;101466.10;105764;1271;73914;-81
2023/09/02 09:53:56;;;;;;;;;;;;;;;20.57;64.92;101467.86;105667;1273;124847;-80
2023/09/02 09:56:26;;;;;;;;;;;;;;;20.61;64.84;101465.37;108081;1273;72762;-81
2023/09/02 09:58:52;;;;;;;;;;;;;;;20.65;64.52;101470.88;108077;1270;59045;-83
2023/09/02 10:01:22;;;;;;;;;;;;;;;20.69;64.43;101472.83;107988;1270;124351;-81
2023/09/02 10:03:50;;;;;;;;;;;;;;;20.74;64.15;101476.71;108167;1271;74387;-81
2023/09/02 10:06:17;;;;;;;;;;;;;;;20.78;63.91;101479.02;107811;1273;124501;-83
2023/09/02 10:08:59;;;;;;;;;;;;;;;20.80;62.97;101482.03;107967;1270;71564;-82
2023/09/02 10:11:26;;;;;;;;;;;;;;;20.78;62.45;101484.55;108179;1270;59206;-81
2023/09/02 10:13:52;;;;;;;;;;;;;;;20.79;62.16;101486.86;107509;1273;124732;-81
2023/09/02 10:16:19;;;;;;;;;;;;;;;20.81;62.13;101487.38;105706;1270;74820;-82
2023/09/02 10:18:46;;;;;;;;;;;;;;;20.85;62.10;101490.75;105717;1270;124089;-82
2023/09/02 10:21:13;;;;;;;;;;;;;;;20.87;61.79;101494.84;105736;1271;71722;-83
2023/09/02 10:23:42;;;;;;;;;;;;;;;20.86;61.24;101492.52;105823;1273;61274;-82
2023/09/02 10:26:11;;;;;;;;;;;;;;;20.85;61.20;101493.77;105715;1270;124406;-82
2023/09/02 10:28:38;;;;;;;;;;;;;;;20.89;61.33;101495.90;105852;1274;73867;-82
2023/09/02 10:31:06;;;;;;;;;;;;;;;20.91;61.01;101497.48;105766;1273;124372;-82
2023/09/02 10:33:38;;;;;;;;;;;;;;;20.90;60.70;101498.39;105919;1269;73208;-81
2023/09/02 10:36:05;;;;;;;;;;;;;;;20.91;61.04;101503.02;105635;1270;125007;-81
2023/09/02 10:38:32;;;;;;;;;;;;;;;20.95;61.04;101506.40;105673;1270;61221;-81
2023/09/02 10:41:02;;;;;;;;;;;;;;;20.98;61.22;101508.86;105673;1270;74783;-81
2023/09/02 10:43:29;;;;;;;;;;;;;;;21.02;61.41;101510.63;107193;1269;124161;-82
2023/09/02 10:45:56;;;;;;;;;;;;;;;21.07;61.21;101520.06;105698;1270;61495;-82
2023/09/02 10:48:22;;;;;;;;;;;;;;;21.09;61.03;101519.15;105637;1270;124550;-82
2023/09/02 10:50:49;;;;;;;;;;;;;;;21.13;61.28;101525.20;105793;1272;61375;-81
2023/09/02 10:53:15;;;;;;;;;;;;;;;21.19;61.22;101528.55;105039;1273;61179;-81
2023/09/02 10:55:58;;;;;;;;;;;;;;;21.22;61.09;101529.59;105646;1273;124607;-82
2023/09/02 10:58:25;;;;;;;;;;;;;;;21.23;60.98;101534.77;105868;1270;71319;-82
2023/09/02 11:00:52;;;;;;;;;;;;;;;21.24;60.84;101534.95;105528;1271;124188;-81
2023/09/02 11:03:37;;;;;;;;;;;;;;;21.24;61.00;101535.30;105756;1269;61310;-82
2023/09/02 11:06:04;;;;;;;;;;;;;;;21.25;60.93;101540.46;105688;1270;124796;-82
2023/09/02 11:08:41;;;;;;;;;;;;;;;21.28;61.06;101542.77;105850;1269;66063;-82
2023/09/02 11:11:07;;;;;;;;;;;;;;;21.33;61.13;101546.14;105755;1273;73144;-82
2023/09/02 11:13:36;;;;;;;;;;;;;;;21.38;60.82;101544.13;105677;1270;124898;-83
2023/09/02 11:16:15;;;;;;;;;;;;;;;21.40;60.61;101545.02;105646;1271;61284;-82
2023/09/02 11:18:41;;;;;;;;;;;;;;;21.43;60.39;101543.73;105702;1273;124853;-79
2023/09/02 11:21:08;;;;;;;;;;;;;;;21.47;60.07;101540.34;105841;1273;65089;-82
2023/09/02 11:23:35;;;;;;;;;;;;;;;21.51;60.25;101542.64;105815;1271;61336;-82
2023/09/02 11:26:05;;;;;;;;;;;;;;;21.56;60.25;101547.42;105627;1270;124135;-82
2023/09/02 11:28:31;;;;;;;;;;;;;;;21.61;60.07;101551.13;105766;1270;61927;-82
2023/09/02 11:31:04;;;;;;;;;;;;;;;21.66;59.98;101553.23;105764;1270;124280;-82
2023/09/02 11:33:32;;;;;;;;;;;;;;;21.75;59.90;101553.51;105770;1270;64826;-82
2023/09/02 11:36:11;;;;;;;;;;;;;;;21.85;59.72;101551.83;105562;1269;124879;-83
2023/09/02 11:38:38;;;;;;;;;;;;;;;21.92;59.40;101554.61;105731;1273;61311;-82
2023/09/02 11:41:04;;;;;;;;;;;;;;;21.99;59.43;101554.75;105754;1270;64124;-82
2023/09/02 11:43:36;;;;;;;;;;;;;;;22.04;59.17;101559.33;106807;1270;125216;-80
2023/09/02 11:46:02;;;;;;;;;;;;;;;22.09;59.19;101558.02;106126;1269;66358;-80
2023/09/02 11:48:29;;;;;;;;;;;;;;;22.16;59.11;101559.56;105636;1270;124556;-82
2023/09/02 11:50:58;;;;;;;;;;;;;;;22.25;59.08;101554.48;105810;1270;61357;-82
2023/09/02 11:53:28;;;;;;;;;;;;;;;22.40;59.02;101552.55;105843;1270;59460;-82
2023/09/02 11:56:04;;;;;;;;;;;;;;;22.55;58.69;101554.71;105843;1270;126209;-84
2023/09/02 11:58:34;;;;;;;;;;;;;;;22.67;58.36;101559.40;105738;1269;63963;-83
2023/09/02 12:01:01;;;;;;;;;;;;;;;22.67;58.16;101564.40;105591;1273;124808;-83
2023/09/02 12:03:28;;;;;;;;;;;;;;;22.61;58.09;101563.23;105820;1271;61397;-83
2023/09/02 12:05:56;;;;;;;;;;;;;;;22.60;57.96;101562.15;107432;1271;60110;-81
2023/09/02 12:08:22;;;;;;;;;;;;;;;22.60;57.96;101561.45;105600;1270;124176;-82
2023/09/02 12:10:49;;;;;;;;;;;;;;;22.61;57.63;101560.91;105730;1270;61386;-81
2023/09/02 12:13:15;;;;;;;;;;;;;;;22.62;57.37;101561.61;105800;1270;125154;-82
2023/09/02 12:15:47;;;;;;;;;;;;;;;22.63;57.20;101562.48;105819;1274;61208;-82
2023/09/02 12:18:14;;;;;;;;;;;;;;;22.68;56.96;101562.95;105704;1270;124492;-81
2023/09/02 12:20:40;;;;;;;;;;;;;;;22.76;56.92;101561.07;105875;1270;74725;-82
2023/09/02 12:23:07;;;;;;;;;;;;;;;22.84;56.85;101564.73;105695;1272;66332;-83
2023/09/02 12:25:35;;;;;;;;;;;;;;;22.90;56.68;101558.20;105668;1272;124663;-80